• Join FlightAware (Why Join?)
  • Login
  • US Flag 
01:53PM EDT


 

Airport Tracker/Info


-or-


 

Live Flight TrackerFlight Track Log ✈ BOE1 ✈ 11-Feb-2010 ✈ KMWH - KBFI

Flight Track Log - Related Links

Times and Time Zones

All times are in EST time to prevent confusion due to time zone crossing. See the BOE1 flight status page for this flight to view local times or setup timezone preferences in your user account.

Time Position Orientation Groundspeed Altitude Reporting Facility
EST Latitude Longitude Course Direction KTS MPH feet Rate Location/Type
06:37PM 47.2744 -119.3030 110° East 222 255 4,300  Level Seattle Center
06:38PM 47.2572 -119.2140 113° Southeast 10,000 2,100 Climbing Seattle Center
06:39PM 47.2275 -119.1110 114° Southeast 267 307 9,000 360 Descending Seattle Center
06:40PM 47.1978 -119.0130 111° Southeast 267 307 10,800 1,200 Climbing Seattle Center
06:41PM 47.1722 -118.9130 115° Southeast 262 302 11,400 660 Climbing Seattle Center
06:42PM 47.1467 -118.8310 111° Southeast 248 285 12,200 600 Climbing Seattle Center
06:43PM 47.1250 -118.7460 114° Southeast 232 267 12,600 120 Climbing Seattle Center
06:44PM 47.0994 -118.6610 112° Southeast 232 267 12,500 -60 Descending Seattle Center
06:45PM 47.0756 -118.5730 114° Southeast 232 267 12,500  Level Seattle Center
06:46PM 47.0497 -118.4890 111° Southeast 232 267 12,600  Climbing Seattle Center
06:47PM 47.0281 -118.4070 115° Southeast 227 261 12,500 -60 Descending Seattle Center
06:48PM 47.0064 -118.3380 111° Southeast 206 237 12,500  Level Seattle Center
06:49PM 46.9889 -118.2710 116° Southeast 184 212 12,600 60 Climbing Seattle Center
06:50PM 46.9692 -118.2110 113° Southeast 174 200 12,700 300 Climbing Seattle Center
06:51PM 46.9497 -118.1450 113° Southeast 169 194 13,200 360 Climbing Seattle Center
06:52PM 46.9300 -118.0780 115° Southeast 169 194 13,500 60 Climbing Seattle Center
06:53PM 46.9103 -118.0150 114° Southeast 169 194 13,400 -180 Descending Seattle Center
06:54PM 46.8906 -117.9490 114° Southeast 169 194 13,200 -300 Descending Seattle Center
06:55PM 46.8708 -117.8830 119° Southeast 169 194 12,900 -240 Descending Seattle Center
06:56PM 46.8467 -117.8200 116° Southeast 174 200 12,800 -60 Descending Seattle Center
06:57PM 46.8247 -117.7540 115° Southeast 174 200 12,800 180 Level Seattle Center
06:58PM 46.8050 -117.6910 114° Southeast 174 200 13,200 360 Climbing Seattle Center
06:59PM 46.7850 -117.6250 112° Southeast 174 200 13,600 240 Climbing Seattle Center
07:00PM 46.7650 -117.5530 115° Southeast 174 200 13,700 -60 Climbing Seattle Center
07:01PM 46.7450 -117.4910 106° East 174 200 13,500 -420 Descending Seattle Center
07:02PM 46.7311 -117.4220 107° East 174 200 12,900 -540 Descending Seattle Center
07:03PM 46.7172 -117.3560 118° Southeast 168 193 12,500 -420 Descending Seattle Center
07:04PM 46.6953 -117.2960 119° Southeast 168 193 12,100 -120 Descending Seattle Center
07:05PM 46.6731 -117.2370 99° East 168 193 12,300 660 Climbing Seattle Center
07:06PM 46.6656 -117.1710 North 173 199 13,500 720 Climbing Seattle Center
07:07PM 46.7089 -117.1620 301° West 125 144 13,800 60 Climbing Seattle Center
07:08PM 46.7308 -117.2160 297° West 81 93 13,700 -60 Descending Seattle Center
07:09PM 46.7489 -117.2690 291° West 124 143 13,700 -120 Level Seattle Center
07:10PM 46.7647 -117.3290 292° West 140 161 13,500 -420 Descending Seattle Center
07:11PM 46.7803 -117.3860 298° West 154 177 12,900 -360 Descending Seattle Center
07:12PM 46.8003 -117.4400 305° West 154 177 12,800 -120 Descending Seattle Center
07:13PM 46.8242 -117.4900 290° West 149 171 12,700  Descending Seattle Center
07:14PM 46.8378 -117.5440 292° West 149 171 12,800 540 Climbing Seattle Center
07:15PM 46.8556 -117.6070 288° West 159 183 13,800 540 Climbing Seattle Center
07:16PM 46.8736 -117.6890 288° West 186 214 13,900  Climbing Seattle Center
07:17PM 46.8939 -117.7820 287° West 219 252 13,900 -60 Level Seattle Center
07:18PM 46.9144 -117.8820 286° West 241 277 13,800 -240 Descending Seattle Center
07:19PM 46.9347 -117.9840 286° West 254 292 13,500 -300 Descending Seattle Center
07:20PM 46.9550 -118.0870 289° West 260 299 13,200 -120 Descending Seattle Center
07:21PM 46.9772 -118.1830 295° West 260 299 13,300 300 Climbing Seattle Center
07:22PM 47.0056 -118.2740 288° West 260 299 13,900 180 Climbing Seattle Center
07:23PM 47.0275 -118.3710 289° West 255 293 13,700 -180 Descending Seattle Center
07:24PM 47.0494 -118.4670 282° West 250 288 13,600 -120 Descending Seattle Center
07:25PM 47.0650 -118.5710 286° West 250 288 13,500 -60 Descending Seattle Center
07:26PM 47.0850 -118.6770 283° West 262 302 13,500 180 Level Seattle Center
07:27PM 47.1003 -118.7770 170° South 262 302 13,900 180 Climbing Seattle Center
07:28PM 47.0461 -118.7630 101° East 142 163 13,900 -60 Level Seattle Center
07:29PM 47.0306 -118.6510 102° East 134 154 13,800 -300 Descending Seattle Center
07:30PM 47.0147 -118.5380 95° East 205 236 13,300 -300 Descending Seattle Center
07:31PM 47.0072 -118.4230 103° East 250 288 13,300 -120 Level Seattle Center
07:32PM 46.9892 -118.3080 100° East 281 323 13,100  Descending Seattle Center
07:33PM 46.9753 -118.1960 103° East 286 329 13,300 180 Climbing Seattle Center
07:34PM 46.9592 -118.0930 103° East 273 314 13,500 180 Climbing Seattle Center
07:35PM 46.9433 -117.9930 32° Northeast 261 300 13,700 60 Climbing Seattle Center
07:36PM 46.9822 -117.9580 308° West 185 213 13,700  Level Seattle Center
07:37PM 47.0208 -118.0300 305° West 106 122 13,700 -60 Level Seattle Center
07:38PM 47.0553 -118.1020 299° West 161 185 13,600 -60 Descending Seattle Center
07:39PM 47.0811 -118.1710 266° West 185 213 13,600  Level Seattle Center
07:40PM 47.0778 -118.2380 262° West 179 206 13,600 -120 Level Seattle Center
07:41PM 47.0722 -118.2930 265° West 159 183 13,400 -300 Descending Seattle Center
07:42PM 47.0689 -118.3540 259° West 154 177 13,000 -300 Descending Seattle Center
07:43PM 47.0594 -118.4280 262° West 169 194 12,900  Descending Seattle Center
07:44PM 47.0519 -118.5040 261° West 182 209 13,000  Climbing Seattle Center
07:45PM 47.0444 -118.5770 266° West 182 209 13,000  Level Seattle Center
07:46PM 47.0408 -118.6500 266° West 182 209 13,000  Level Seattle Center
07:47PM 47.0375 -118.7260 260° West 182 209 13,100  Climbing Seattle Center
07:48PM 47.0278 -118.8030 263° West 182 209 13,000 -60 Descending Seattle Center
07:49PM 47.0203 -118.8970 263° West 205 236 13,000  Level Seattle Center
07:50PM 47.0125 -118.9950 262° West 229 264 13,000  Level Seattle Center
07:51PM 47.0028 -119.0920 260° West 241 277 13,000  Level Seattle Center
07:52PM 46.9908 -119.1870 265° West 241 277 13,000  Level Seattle Center
07:53PM 46.9850 -119.2900 259° West 247 284 13,000 -300 Level Seattle Center
07:54PM 46.9708 -119.3940 263° West 252 290 12,500 -540 Descending Seattle Center
07:55PM 46.9628 -119.4910 261° West 258 297 12,000 -300 Descending Seattle Center
07:56PM 46.9525 -119.5910 264° West 258 297 12,000  Level Seattle Center
07:57PM 46.9444 -119.6980 257° West 258 297 12,000  Level Seattle Center
07:58PM 46.9300 -119.7920 265° West 253 291 12,000  Level Seattle Center
07:59PM 46.9236 -119.8950 260° West 258 297 12,000  Level Seattle Center
08:00PM 46.9108 -119.9980 262° West 258 297 12,000  Level Seattle Center
08:01PM 46.8981 -120.1230 261° West 277 319 12,100  Climbing Seattle Center
08:02PM 46.8875 -120.2230 263° West 277 319 12,100  Level Seattle Center
08:03PM 46.8786 -120.3260 261° West 271 312 12,100  Level Seattle Center
08:04PM 46.8678 -120.4260 278° West 271 312 12,100 -60 Level Seattle Center
08:05PM 46.8775 -120.5290 288° West 258 297 12,000 -60 Descending Seattle Center
08:06PM 46.8997 -120.6300 285° West 258 297 12,000  Level Seattle Center
08:07PM 46.9178 -120.7300 286° West 258 297 12,000  Level Seattle Center
08:08PM 46.9358 -120.8220 287° West 263 303 12,000 -60 Level Seattle Center
08:09PM 46.9556 -120.9190 287° West 263 303 11,900 -300 Descending Seattle Center
08:10PM 46.9756 -121.0140 284° West 258 297 11,500 -600 Descending Seattle Center
08:11PM 46.9931 -121.1180 287° West 258 297 10,700 -780 Descending Seattle Center
08:12PM 47.0147 -121.2220 289° West 258 297 10,000 -420 Descending Seattle Center
08:13PM 47.0364 -121.3140 285° West 255 293 9,900 -60 Descending Seattle Center
08:14PM 47.0539 -121.4120 286° West 250 288 9,900  Level Seattle Center
08:15PM 47.0733 -121.5100 304° West 250 288 10,000  Climbing Seattle Center
08:16PM 47.1136 -121.5990 303° West 250 288 10,000  Level Seattle Center
08:17PM 47.1539 -121.6890 303° West 263 303 10,000  Level Seattle Center
08:18PM 47.1939 -121.7790 306° West 268 308 10,000  Level Seattle Center
08:19PM 47.2361 -121.8660 303° West 263 303 10,000  Level Seattle Center
08:20PM 47.2742 -121.9530 302° West 263 303 10,000  Level Seattle Center
08:20PM 47.2900 -121.9910 304° West 263 303 10,000  Level Seattle Center
08:21PM 47.3142 -122.0430 303° West 263 303 10,000  Level Seattle Center
08:21PM 47.3319 -122.0840 306° West 266 306 10,000  Level Seattle Center
08:22PM 47.3561 -122.1340 305° West 263 303 10,000  Level Seattle Center
08:22PM 47.3758 -122.1750 303° West 269 310 10,000 -420 Level Seattle Center
08:23PM 47.3978 -122.2250 303° West 263 303 9,600 -840 Descending Seattle Center
08:23PM 47.4197 -122.2750 301° West 270 311 9,100 -900 Descending Seattle Center
08:24PM 47.4375 -122.3190 288° West 263 303 8,700 -1,380 Descending Seattle Center
08:24PM 47.4450 -122.3530 314° West 256 295 7,900 -2,040 Descending Seattle Center
08:25PM 47.4753 -122.4000 327° Northwest 257 296 6,700 -2,280 Descending Seattle Center
08:25PM 47.5058 -122.4290 327° Northwest 258 297 5,600 -2,220 Descending Seattle Center
08:26PM 47.5364 -122.4580 319° Northwest 245 282 4,500 -2,160 Descending Seattle Center
08:27PM 47.5667 -122.4970 335° Northwest 254 292 3,200 -2,100 Descending Seattle Center
08:27PM 47.5953 -122.5170 35° Northeast 251 289 2,400 -660 Descending Seattle Center
08:28PM 47.6403 -122.4700 105° East 184 212 2,200 -240 Descending Seattle Center
08:28PM 47.6347 -122.4390 111° Southeast 173 199 2,100 -540 Descending Seattle Center
08:29PM 47.6250 -122.4010 143° Southeast 106 122 1,700 -420 Descending Seattle Center
08:29PM 47.6169 -122.3920 133° Southeast 135 155 1,700 -300 Level Seattle Center
08:30PM 47.5989 -122.3630 150° Southeast 97 112 1,400 -540 Descending Seattle Center
08:30PM 47.5906 -122.3560 146° Southeast 126 145 1,200 -600 Descending Seattle Center
08:31PM 47.5683 -122.3340 175° South 107 123 800 -600 Descending Seattle Center
08:31PM 47.5600 -122.3330 137° Southeast 128 147 600 -600 Descending Seattle Center
08:32PM 47.5439 -122.3110 137° Southeast 125 144 200 -660 Descending Seattle Center